createdAt,value
2018-08-16T00:00:24.225Z,18.43
2018-08-16T00:02:55.081Z,18.37
2018-08-16T00:05:24.023Z,18.32
2018-08-16T00:07:52.911Z,18.28
2018-08-16T00:10:21.784Z,18.23
2018-08-16T00:12:51.917Z,18.18
2018-08-16T00:15:22.247Z,18.13
2018-08-16T00:17:51.088Z,18.07
2018-08-16T00:20:19.959Z,18.01
2018-08-16T00:22:49.988Z,17.97
2018-08-16T00:25:20.370Z,17.92
2018-08-16T00:27:49.816Z,17.87
2018-08-16T00:30:19.984Z,17.81
2018-08-16T00:32:49.761Z,17.71
2018-08-16T00:35:19.370Z,17.69
2018-08-16T00:37:48.784Z,17.61
2018-08-16T00:40:18.718Z,17.54
2018-08-16T00:42:48.577Z,17.50
2018-08-16T00:45:18.443Z,17.45
2018-08-16T00:47:48.355Z,17.40
2018-08-16T00:50:18.721Z,17.35
2018-08-16T00:52:48.520Z,17.31
2018-08-16T00:55:20.047Z,17.29
2018-08-16T00:57:50.651Z,17.25
2018-08-16T01:00:19.466Z,17.21
2018-08-16T01:02:50.233Z,17.16
2018-08-16T01:05:20.015Z,17.12
2018-08-16T01:07:49.517Z,17.07
2018-08-16T01:10:18.771Z,17.03
2018-08-16T01:12:49.096Z,16.95
2018-08-16T01:15:18.759Z,16.91
2018-08-16T01:17:48.187Z,16.87
2018-08-16T01:20:17.533Z,16.84
2018-08-16T01:22:46.783Z,16.83
2018-08-16T01:25:16.437Z,16.78
2018-08-16T01:27:47.991Z,16.73
2018-08-16T01:30:17.455Z,16.68
2018-08-16T01:32:46.431Z,16.65
2018-08-16T01:35:15.317Z,16.63
2018-08-16T01:37:44.181Z,16.60
2018-08-16T01:40:13.063Z,16.57
2018-08-16T01:42:41.827Z,16.54
2018-08-16T01:45:10.763Z,16.53
2018-08-16T01:47:40.427Z,16.51
2018-08-16T01:51:12.060Z,16.52
2018-08-16T01:53:41.444Z,16.51
2018-08-16T01:56:11.266Z,16.51
2018-08-16T01:58:47.267Z,16.49
2018-08-16T02:01:17.389Z,16.46
2018-08-16T02:03:47.792Z,16.45
2018-08-16T02:06:18.344Z,16.44
2018-08-16T02:08:48.236Z,16.43
2018-08-16T02:11:17.379Z,16.42
2018-08-16T02:13:47.119Z,16.39
2018-08-16T02:16:16.876Z,16.38
2018-08-16T02:18:46.418Z,16.35
2018-08-16T02:21:15.362Z,16.31
2018-08-16T02:23:44.143Z,16.29
2018-08-16T02:26:13.197Z,16.27
2018-08-16T02:28:42.532Z,16.26
2018-08-16T02:31:11.363Z,16.28
2018-08-16T02:33:40.181Z,16.28
2018-08-16T02:36:09.143Z,16.28
2018-08-16T02:38:37.895Z,16.29
2018-08-16T02:41:07.100Z,16.29
2018-08-16T02:43:35.940Z,16.30
2018-08-16T02:46:04.787Z,16.29
2018-08-16T02:48:34.182Z,16.28
2018-08-16T02:51:02.970Z,16.27
2018-08-16T02:53:32.692Z,16.29
2018-08-16T02:56:02.183Z,16.31
2018-08-16T02:58:31.764Z,16.31
2018-08-16T03:01:00.604Z,16.35
2018-08-16T03:03:29.866Z,16.38
2018-08-16T03:05:58.860Z,16.42
2018-08-16T03:08:27.607Z,16.46
2018-08-16T03:10:56.535Z,16.50
2018-08-16T03:13:25.723Z,16.54
2018-08-16T03:15:54.856Z,16.57
2018-08-16T03:18:23.664Z,16.62
2018-08-16T03:20:52.419Z,16.68
2018-08-16T03:23:22.079Z,16.72
2018-08-16T03:25:50.894Z,16.78
2018-08-16T03:28:20.439Z,16.81
2018-08-16T03:30:49.407Z,16.85
2018-08-16T03:33:18.505Z,16.88
2018-08-16T03:35:47.480Z,16.91
2018-08-16T03:38:16.808Z,16.95
2018-08-16T03:40:45.803Z,17.01
2018-08-16T03:43:14.650Z,17.09
2018-08-16T03:45:43.422Z,17.25
2018-08-16T03:48:13.222Z,17.34
2018-08-16T03:50:42.005Z,17.40
2018-08-16T03:53:11.767Z,17.42
2018-08-16T03:55:41.219Z,17.46
2018-08-16T03:58:10.677Z,17.44
2018-08-16T04:00:39.450Z,17.43
2018-08-16T04:03:09.121Z,17.39
2018-08-16T04:05:37.894Z,17.33
2018-08-16T04:08:06.780Z,17.30
2018-08-16T04:10:36.347Z,17.29
2018-08-16T04:13:05.569Z,17.25
2018-08-16T04:15:34.384Z,17.26
2018-08-16T04:18:03.147Z,17.24
2018-08-16T04:20:31.869Z,17.24
2018-08-16T04:23:01.107Z,17.24
2018-08-16T04:25:30.033Z,17.25
2018-08-16T04:27:59.313Z,17.26
2018-08-16T04:30:28.126Z,17.27
2018-08-16T04:32:56.968Z,17.29
2018-08-16T04:35:25.827Z,17.34
2018-08-16T04:37:54.684Z,17.36
2018-08-16T04:40:23.695Z,17.39
2018-08-16T04:42:52.755Z,17.43
2018-08-16T04:45:21.517Z,17.48
2018-08-16T04:47:51.175Z,17.53
2018-08-16T04:50:19.975Z,17.60
2018-08-16T04:52:49.747Z,17.63
2018-08-16T04:55:19.667Z,17.68
2018-08-16T04:57:49.351Z,17.71
2018-08-16T05:00:18.599Z,17.72
2018-08-16T05:02:48.963Z,17.74
2018-08-16T05:05:17.983Z,17.77
2018-08-16T05:07:46.985Z,17.79
2018-08-16T05:10:16.104Z,17.84
2018-08-16T05:12:44.899Z,17.85
2018-08-16T05:15:14.271Z,17.91
2018-08-16T05:17:43.178Z,17.96
2018-08-16T05:20:13.383Z,18.00
2018-08-16T05:22:43.122Z,18.06
2018-08-16T05:25:11.983Z,18.11
2018-08-16T05:27:40.736Z,18.17
2018-08-16T05:30:12.172Z,18.26
2018-08-16T05:32:41.215Z,18.36
2018-08-16T05:35:10.351Z,18.46
2018-08-16T05:37:39.321Z,18.59
2018-08-16T05:40:09.609Z,18.71
2018-08-16T05:42:38.935Z,18.80
2018-08-16T05:45:08.374Z,18.89
2018-08-16T05:47:38.486Z,18.98
2018-08-16T05:50:09.652Z,19.01
2018-08-16T05:52:39.294Z,19.12
2018-08-16T05:55:09.079Z,19.20
2018-08-16T05:57:39.188Z,19.32
2018-08-16T06:00:12.331Z,19.38
2018-08-16T06:02:41.961Z,19.40
2018-08-16T06:05:12.248Z,19.44
2018-08-16T06:07:41.133Z,19.49
2018-08-16T06:10:11.158Z,19.61
2018-08-16T06:12:39.979Z,19.70
2018-08-16T06:15:09.580Z,19.77
2018-08-16T06:17:38.453Z,19.82
2018-08-16T06:20:10.840Z,19.87
2018-08-16T06:22:40.447Z,19.91
2018-08-16T06:25:11.203Z,19.95
2018-08-16T06:27:40.026Z,20.03
2018-08-16T06:30:15.731Z,20.12
2018-08-16T06:32:45.647Z,20.16
2018-08-16T06:35:14.547Z,20.30
2018-08-16T06:37:43.427Z,20.41
2018-08-16T06:40:17.549Z,20.50
2018-08-16T06:42:47.759Z,20.60
2018-08-16T06:45:16.735Z,20.69
2018-08-16T06:47:47.553Z,20.83
2018-08-16T06:50:16.795Z,20.95
2018-08-16T06:52:46.664Z,21.03
2018-08-16T06:55:16.533Z,21.11
2018-08-16T06:57:46.317Z,21.19
2018-08-16T07:00:15.529Z,21.30
2018-08-16T07:02:45.130Z,21.38
2018-08-16T07:05:14.355Z,21.50
2018-08-16T07:07:43.151Z,21.58
2018-08-16T07:10:13.153Z,21.73
2018-08-16T07:12:41.986Z,21.86
2018-08-16T07:15:13.351Z,21.93
2018-08-16T07:17:42.885Z,22.02
2018-08-16T07:20:11.803Z,22.12
2018-08-16T07:22:41.132Z,22.22
2018-08-16T07:25:10.440Z,22.28
2018-08-16T07:27:39.216Z,22.36
2018-08-16T07:30:09.551Z,22.45
2018-08-16T07:32:38.776Z,22.56
2018-08-16T07:35:08.810Z,22.68
2018-08-16T07:37:37.753Z,22.83
2018-08-16T07:40:07.172Z,22.97
2018-08-16T07:42:36.047Z,23.10
2018-08-16T07:45:06.013Z,23.17
2018-08-16T07:47:35.795Z,23.22
2018-08-16T07:50:05.660Z,23.26
2018-08-16T07:52:35.088Z,23.35
2018-08-16T07:55:04.649Z,23.43
2018-08-16T07:57:34.161Z,23.48
2018-08-16T08:00:03.690Z,23.55
2018-08-16T08:02:33.008Z,23.63
2018-08-16T08:05:02.531Z,23.73
2018-08-16T08:07:31.335Z,23.82
2018-08-16T08:10:00.148Z,23.94
2018-08-16T08:12:28.985Z,24.00
2018-08-16T08:14:57.751Z,24.06
2018-08-16T08:17:26.644Z,24.14
2018-08-16T08:19:55.534Z,24.25
2018-08-16T08:22:25.209Z,24.40
2018-08-16T08:24:54.061Z,24.56
2018-08-16T08:27:22.841Z,24.57
2018-08-16T08:29:51.631Z,24.46
2018-08-16T08:32:20.523Z,24.31
2018-08-16T08:34:49.567Z,24.16
2018-08-16T08:37:29.364Z,24.12
2018-08-16T08:39:58.215Z,24.14
2018-08-16T08:42:27.009Z,24.24
2018-08-16T08:44:56.013Z,24.39
2018-08-16T08:47:31.509Z,24.54
2018-08-16T08:50:00.344Z,24.70
2018-08-16T08:52:29.886Z,24.80
2018-08-16T08:55:10.254Z,24.96
2018-08-16T08:57:50.674Z,25.14
2018-08-16T09:00:19.505Z,25.27
2018-08-16T09:02:49.091Z,25.33
2018-08-16T09:05:18.176Z,25.41
2018-08-16T09:07:47.390Z,25.54
2018-08-16T09:10:52.124Z,25.68
2018-08-16T09:13:32.915Z,25.73
2018-08-16T09:16:03.521Z,25.88
2018-08-16T09:18:32.684Z,25.99
2018-08-16T09:21:01.463Z,26.07
2018-08-16T09:23:30.812Z,26.12
2018-08-16T09:25:59.907Z,26.14
2018-08-16T09:28:28.651Z,26.29
2018-08-16T09:31:08.369Z,26.40
2018-08-16T09:33:48.167Z,26.49
2018-08-16T09:36:17.178Z,26.57
2018-08-16T09:38:46.220Z,26.63
2018-08-16T09:41:15.023Z,26.65
2018-08-16T09:43:44.056Z,26.68
2018-08-16T09:46:53.387Z,26.59
2018-08-16T09:49:22.778Z,26.61
2018-08-16T09:51:52.416Z,26.68
2018-08-16T09:54:21.844Z,26.72
2018-08-16T09:56:51.603Z,26.71
2018-08-16T09:59:21.349Z,26.77
2018-08-16T10:01:50.146Z,26.81
2018-08-16T10:04:19.417Z,26.86
2018-08-16T10:06:48.489Z,26.92
2018-08-16T10:09:20.416Z,26.95
2018-08-16T10:11:49.687Z,27.02
2018-08-16T10:14:21.068Z,26.98
2018-08-16T10:16:49.890Z,26.98
2018-08-16T10:19:19.123Z,27.04
2018-08-16T10:21:48.227Z,27.11
2018-08-16T10:24:18.176Z,27.19
2018-08-16T10:26:47.324Z,27.24
2018-08-16T10:29:16.488Z,27.30
2018-08-16T10:31:45.445Z,27.30
2018-08-16T10:34:14.206Z,27.19
2018-08-16T10:36:43.172Z,27.04
2018-08-16T10:39:13.870Z,26.98
2018-08-16T10:41:42.840Z,26.84
2018-08-16T10:44:12.131Z,26.83
2018-08-16T10:46:40.965Z,26.87
2018-08-16T10:49:10.986Z,26.94
2018-08-16T10:51:40.571Z,27.05
2018-08-16T10:54:10.083Z,27.03
2018-08-16T10:56:39.464Z,26.99
2018-08-16T10:59:08.852Z,26.99
2018-08-16T11:01:37.702Z,26.91
2018-08-16T11:04:07.230Z,26.84
2018-08-16T11:06:36.035Z,26.80
2018-08-16T11:09:07.482Z,26.72
2018-08-16T11:11:36.224Z,26.68
2018-08-16T11:14:05.410Z,26.64
2018-08-16T11:16:34.394Z,26.62
2018-08-16T11:19:03.255Z,26.61
2018-08-16T11:21:31.993Z,26.67
2018-08-16T11:24:01.160Z,26.70
2018-08-16T11:26:29.906Z,26.70
2018-08-16T11:28:58.664Z,26.76
2018-08-16T11:31:27.492Z,26.80
2018-08-16T11:33:56.304Z,26.75
2018-08-16T11:36:25.271Z,26.73
2018-08-16T11:38:54.054Z,26.81
2018-08-16T11:41:22.767Z,26.79
2018-08-16T11:43:51.497Z,26.81
2018-08-16T11:46:20.273Z,26.95
2018-08-16T11:48:50.024Z,26.99
2018-08-16T11:51:19.804Z,27.14
2018-08-16T11:53:49.756Z,27.30
2018-08-16T11:56:19.338Z,27.39
2018-08-16T11:58:48.829Z,27.48
2018-08-16T12:01:18.371Z,27.48
2018-08-16T12:03:48.639Z,27.58
2018-08-16T12:06:17.711Z,27.66
2018-08-16T12:08:46.899Z,27.66
2018-08-16T12:11:16.065Z,27.57
2018-08-16T12:13:44.802Z,27.45
2018-08-16T12:16:13.669Z,27.36
2018-08-16T12:18:42.683Z,27.23
2018-08-16T12:21:11.464Z,27.24
2018-08-16T12:23:40.760Z,27.34
2018-08-16T12:26:09.558Z,27.43
2018-08-16T12:28:38.425Z,27.49
2018-08-16T12:31:07.284Z,27.40
2018-08-16T12:33:36.101Z,27.39
2018-08-16T12:36:05.884Z,27.33
2018-08-16T12:38:34.732Z,27.28
2018-08-16T12:41:04.110Z,27.33
2018-08-16T12:43:35.185Z,27.50
2018-08-16T12:46:04.044Z,27.66
2018-08-16T12:48:34.076Z,27.82
2018-08-16T12:51:03.451Z,27.82
2018-08-16T12:53:32.772Z,27.77
2018-08-16T12:56:02.187Z,27.75
2018-08-16T12:58:31.518Z,27.73
2018-08-16T13:01:00.305Z,27.69
2018-08-16T13:03:29.570Z,27.53
2018-08-16T13:05:58.356Z,27.48
2018-08-16T13:08:27.099Z,27.30
2018-08-16T13:10:55.947Z,27.11
2018-08-16T13:13:24.719Z,26.98
2018-08-16T13:15:53.645Z,26.85
2018-08-16T13:18:22.484Z,26.76
2018-08-16T13:20:51.330Z,26.67
2018-08-16T13:23:20.989Z,26.72
2018-08-16T13:25:49.833Z,26.78
2018-08-16T13:28:19.000Z,26.79
2018-08-16T13:30:48.169Z,26.75
2018-08-16T13:33:17.469Z,26.73
2018-08-16T13:35:46.534Z,26.66
2018-08-16T13:38:15.375Z,26.58
2018-08-16T13:40:44.120Z,26.59
2018-08-16T13:43:12.867Z,26.61
2018-08-16T13:45:41.627Z,26.61
2018-08-16T13:48:11.332Z,26.68
2018-08-16T13:50:41.081Z,26.70
2018-08-16T13:53:10.374Z,26.80
2018-08-16T13:55:39.864Z,26.93
2018-08-16T13:58:09.251Z,27.12
2018-08-16T14:00:38.066Z,27.29
2018-08-16T14:03:07.355Z,27.46
2018-08-16T14:05:36.140Z,27.60
2018-08-16T14:08:05.035Z,27.61
2018-08-16T14:10:33.871Z,27.56
2018-08-16T14:13:02.689Z,27.42
2018-08-16T14:15:31.609Z,27.29
2018-08-16T14:18:00.415Z,27.10
2018-08-16T14:20:29.214Z,26.92
2018-08-16T14:22:58.930Z,26.75
2018-08-16T14:25:27.679Z,26.62
2018-08-16T14:27:56.604Z,26.55
2018-08-16T14:30:25.634Z,26.48
2018-08-16T14:32:56.851Z,26.41
2018-08-16T14:35:25.750Z,26.35
2018-08-16T14:37:54.616Z,26.27
2018-08-16T14:40:23.779Z,26.20
2018-08-16T14:42:52.905Z,26.19
2018-08-16T14:48:53.988Z,26.19
2018-08-16T14:51:23.386Z,26.18
2018-08-16T14:53:52.628Z,26.09
2018-08-16T14:56:22.004Z,25.99
2018-08-16T14:58:51.432Z,25.91
2018-08-16T15:01:20.171Z,25.86
2018-08-16T15:03:49.572Z,25.82
2018-08-16T15:06:18.553Z,25.79
2018-08-16T15:08:47.539Z,25.69
2018-08-16T15:11:16.505Z,25.56
2018-08-16T15:13:46.309Z,25.48
2018-08-16T15:16:15.115Z,25.37
2018-08-16T15:18:43.922Z,25.29
2018-08-16T15:21:13.032Z,25.23
2018-08-16T15:23:42.236Z,25.20
2018-08-16T15:26:11.087Z,25.16
2018-08-16T15:28:39.909Z,25.02
2018-08-16T15:31:09.115Z,24.92
2018-08-16T15:33:37.909Z,24.71
2018-08-16T15:36:06.860Z,24.48
2018-08-16T15:38:36.653Z,24.27
2018-08-16T15:41:05.553Z,24.11
2018-08-16T15:43:35.039Z,24.01
2018-08-16T15:46:03.889Z,23.98
2018-08-16T15:48:33.263Z,23.96
2018-08-16T15:51:02.735Z,23.97
2018-08-16T15:53:32.267Z,24.02
2018-08-16T15:56:01.820Z,24.03
2018-08-16T15:58:31.310Z,24.05
2018-08-16T16:01:00.120Z,24.11
2018-08-16T16:03:29.494Z,24.46
2018-08-16T16:05:58.363Z,24.93
2018-08-16T16:08:27.040Z,25.38
2018-08-16T16:10:55.833Z,26.01
2018-08-16T16:13:24.615Z,26.37
2018-08-16T16:15:53.468Z,26.49
2018-08-16T16:18:22.295Z,26.60
2018-08-16T16:20:51.100Z,27.10
2018-08-16T16:23:20.398Z,27.52
2018-08-16T16:25:49.376Z,27.53
2018-08-16T16:28:19.526Z,27.46
2018-08-16T16:30:48.720Z,27.34
2018-08-16T16:33:17.812Z,27.45
2018-08-16T16:35:47.799Z,27.42
2018-08-16T16:38:16.815Z,27.13
2018-08-16T16:40:45.769Z,26.81
2018-08-16T16:43:14.727Z,26.63
2018-08-16T16:45:43.840Z,26.47
2018-08-16T16:48:13.079Z,26.27
2018-08-16T16:50:42.449Z,26.23
2018-08-16T16:53:11.916Z,26.21
2018-08-16T16:55:41.319Z,26.00
2018-08-16T16:58:10.556Z,25.82
2018-08-16T17:00:39.417Z,25.71
2018-08-16T17:03:08.730Z,25.55
2018-08-16T17:05:37.508Z,25.47
2018-08-16T17:08:06.372Z,25.51
2018-08-16T17:10:35.202Z,25.48
2018-08-16T17:13:04.029Z,25.46
2018-08-16T17:15:32.888Z,25.39
2018-08-16T17:18:01.733Z,25.27
2018-08-16T17:20:30.530Z,25.19
2018-08-16T17:23:00.459Z,25.08
2018-08-16T17:25:29.215Z,25.01
2018-08-16T17:27:58.472Z,25.09
2018-08-16T17:30:27.221Z,25.02
2018-08-16T17:32:56.111Z,24.95
2018-08-16T17:35:24.931Z,24.87
2018-08-16T17:37:53.655Z,24.80
2018-08-16T17:40:22.500Z,24.76
2018-08-16T17:42:51.306Z,24.73
2018-08-16T17:45:21.191Z,24.73
2018-08-16T17:47:50.541Z,24.64
2018-08-16T17:50:20.068Z,24.56
2018-08-16T17:52:50.099Z,24.44
2018-08-16T17:55:19.545Z,24.33
2018-08-16T17:57:48.927Z,24.26
2018-08-16T18:00:18.125Z,24.19
2018-08-16T18:02:47.831Z,24.12
2018-08-16T18:05:17.146Z,24.08
2018-08-16T18:07:46.596Z,24.01
2018-08-16T18:10:16.685Z,23.96
2018-08-16T18:12:45.471Z,23.88
2018-08-16T18:15:14.686Z,23.82
2018-08-16T18:17:43.472Z,23.77
2018-08-16T18:20:12.335Z,23.74
2018-08-16T18:22:42.047Z,23.71
2018-08-16T18:25:10.903Z,23.67
2018-08-16T18:27:40.220Z,23.60
2018-08-16T18:30:10.113Z,23.57
2018-08-16T18:32:38.895Z,23.53
2018-08-16T18:35:07.873Z,23.49
2018-08-16T18:37:36.615Z,23.45
2018-08-16T18:40:06.265Z,23.41
2018-08-16T18:42:35.116Z,23.35
2018-08-16T18:45:05.294Z,23.28
2018-08-16T18:47:34.521Z,23.22
2018-08-16T18:50:03.366Z,23.15
2018-08-16T18:52:32.753Z,23.13
2018-08-16T18:55:02.334Z,23.09
2018-08-16T18:57:31.711Z,23.06
2018-08-16T19:00:01.182Z,23.07
2018-08-16T19:02:30.580Z,23.07
2018-08-16T19:04:59.664Z,23.08
2018-08-16T19:07:28.437Z,23.08
2018-08-16T19:09:57.153Z,23.08
2018-08-16T19:12:25.952Z,23.08
2018-08-16T19:14:54.686Z,23.05
2018-08-16T19:17:23.680Z,22.98
2018-08-16T19:19:52.519Z,22.92
2018-08-16T19:22:21.894Z,22.88
2018-08-16T19:24:50.644Z,22.83
2018-08-16T19:27:20.099Z,22.75
2018-08-16T19:29:49.253Z,22.73
2018-08-16T19:32:19.683Z,22.67
2018-08-16T19:34:49.248Z,22.61
2018-08-16T19:38:21.379Z,22.55
2018-08-16T19:40:50.313Z,22.48
2018-08-16T19:43:19.995Z,22.42
2018-08-16T19:45:50.081Z,22.35
2018-08-16T19:48:19.599Z,22.31
2018-08-16T19:50:48.644Z,22.26
2018-08-16T19:53:18.875Z,22.20
2018-08-16T19:55:48.342Z,22.16
2018-08-16T19:58:19.149Z,22.11
2018-08-16T20:00:48.934Z,22.03
2018-08-16T20:03:19.115Z,21.98
2018-08-16T20:05:48.190Z,21.93
2018-08-16T20:08:19.183Z,21.88
2018-08-16T20:10:48.721Z,21.83
2018-08-16T20:13:18.196Z,21.77
2018-08-16T20:15:47.455Z,21.73
2018-08-16T20:18:17.163Z,21.69
2018-08-16T20:20:46.002Z,21.65
2018-08-16T20:23:15.429Z,21.62
2018-08-16T20:25:44.247Z,21.56
2018-08-16T20:28:13.005Z,21.52
2018-08-16T20:30:41.763Z,21.46
2018-08-16T20:33:10.668Z,21.42
2018-08-16T20:35:39.620Z,21.39
2018-08-16T20:38:08.475Z,21.34
2018-08-16T20:40:37.241Z,21.29
2018-08-16T20:43:06.112Z,21.23
2018-08-16T20:45:35.830Z,21.20
2018-08-16T20:48:05.438Z,21.17
2018-08-16T20:50:34.214Z,21.14
2018-08-16T20:53:04.062Z,21.11
2018-08-16T20:55:33.476Z,21.10
2018-08-16T20:58:03.469Z,21.06
2018-08-16T21:00:32.304Z,21.02
2018-08-16T21:03:02.239Z,21.01
2018-08-16T21:05:30.951Z,20.99
2018-08-16T21:07:59.767Z,20.98
2018-08-16T21:10:28.539Z,20.95
2018-08-16T21:12:57.589Z,20.93
2018-08-16T21:15:26.448Z,20.91
2018-08-16T21:17:55.256Z,20.89
2018-08-16T21:20:24.020Z,20.86
2018-08-16T21:22:54.060Z,20.85
2018-08-16T21:25:22.825Z,20.83
2018-08-16T21:27:52.323Z,20.82
2018-08-16T21:30:21.002Z,20.79
2018-08-16T21:32:50.048Z,20.77
2018-08-16T21:35:19.172Z,20.75
2018-08-16T21:37:50.168Z,20.74
2018-08-16T21:40:19.310Z,20.71
2018-08-16T21:42:49.440Z,20.69
2018-08-16T21:45:19.006Z,20.70
2018-08-16T21:47:49.484Z,20.68
2018-08-16T21:50:19.138Z,20.68
2018-08-16T21:52:49.297Z,20.67
2018-08-16T21:55:19.184Z,20.68
2018-08-16T21:57:48.810Z,20.70
2018-08-16T22:00:30.420Z,20.75
2018-08-16T22:03:00.090Z,20.78
2018-08-16T22:05:37.575Z,20.83
2018-08-16T22:08:14.637Z,20.88
2018-08-16T22:10:44.191Z,20.92
2018-08-16T22:13:13.060Z,20.95
2018-08-16T22:15:41.899Z,20.97
2018-08-16T22:18:10.683Z,20.98
2018-08-16T22:20:39.456Z,20.99
2018-08-16T22:23:09.019Z,21.02
2018-08-16T22:25:37.777Z,21.05
2018-08-16T22:28:06.531Z,21.05
2018-08-16T22:30:35.331Z,21.05
2018-08-16T22:33:04.345Z,21.05
2018-08-16T22:35:33.251Z,21.05
2018-08-16T22:38:03.584Z,21.05
2018-08-16T22:40:32.308Z,21.05
2018-08-16T22:43:01.526Z,21.01
2018-08-16T22:45:30.889Z,20.99
2018-08-16T22:48:00.678Z,20.97
2018-08-16T22:50:29.669Z,20.95
2018-08-16T22:52:59.562Z,20.95
2018-08-16T22:55:28.798Z,20.90
2018-08-16T22:57:58.486Z,20.86
2018-08-16T23:00:27.293Z,20.78
2018-08-16T23:02:57.757Z,20.75
2018-08-16T23:05:26.497Z,20.69
2018-08-16T23:07:55.281Z,20.64
2018-08-16T23:10:24.047Z,20.61
2018-08-16T23:12:53.010Z,20.58
2018-08-16T23:15:21.879Z,20.53
2018-08-16T23:17:50.727Z,20.51
2018-08-16T23:20:19.608Z,20.48
2018-08-16T23:22:50.099Z,20.45
2018-08-16T23:25:20.237Z,20.42
2018-08-16T23:27:49.795Z,20.37
2018-08-16T23:30:19.068Z,20.33
2018-08-16T23:32:49.455Z,20.31
2018-08-16T23:35:18.685Z,20.28
2018-08-16T23:37:48.309Z,20.27
2018-08-16T23:40:17.314Z,20.24
2018-08-16T23:42:46.567Z,20.23
2018-08-16T23:45:16.375Z,20.19
2018-08-16T23:47:56.576Z,20.17
2018-08-16T23:50:25.967Z,20.13
2018-08-16T23:52:55.545Z,20.10
2018-08-16T23:55:24.878Z,20.06
2018-08-16T23:57:54.295Z,20.03
